createdAt,value
2022-10-09T00:00:51.084Z,41.90
2022-10-09T00:03:18.607Z,50.70
2022-10-09T00:05:46.377Z,55.33
2022-10-09T00:08:13.902Z,41.85
2022-10-09T00:10:42.433Z,54.17
2022-10-09T00:13:09.921Z,52.47
2022-10-09T00:15:41.791Z,50.42
2022-10-09T00:18:10.264Z,53.45
2022-10-09T00:20:38.693Z,55.63
2022-10-09T00:23:06.376Z,55.03
2022-10-09T00:25:34.556Z,43.80
2022-10-09T00:28:02.264Z,49.08
2022-10-09T00:30:30.003Z,47.78
2022-10-09T00:32:57.476Z,53.80
2022-10-09T00:35:24.867Z,45.25
2022-10-09T00:37:52.375Z,43.08
2022-10-09T00:40:20.736Z,57.30
2022-10-09T00:42:49.111Z,60.53
2022-10-09T00:45:20.695Z,57.83
2022-10-09T00:47:49.780Z,53.10
2022-10-09T00:50:22.488Z,52.33
2022-10-09T00:52:51.683Z,56.38
2022-10-09T00:55:19.616Z,47.75
2022-10-09T00:57:47.429Z,69.35
2022-10-09T01:00:15.693Z,57.95
2022-10-09T01:02:43.172Z,46.42
2022-10-09T01:05:11.574Z,57.47
2022-10-09T01:07:43.927Z,53.08
2022-10-09T01:10:30.292Z,49.15
2022-10-09T01:13:13.541Z,49.25
2022-10-09T01:15:49.465Z,55.90
2022-10-09T01:18:37.319Z,51.42
2022-10-09T01:21:07.756Z,61.33
2022-10-09T01:23:38.273Z,56.38
2022-10-09T01:26:10.578Z,80.10
2022-10-09T01:28:39.755Z,72.72
2022-10-09T01:31:08.146Z,94.95
2022-10-09T01:33:35.747Z,79.65
2022-10-09T01:36:03.656Z,82.35
2022-10-09T01:38:31.766Z,67.85
2022-10-09T01:40:59.533Z,59.08
2022-10-09T01:43:26.965Z,49.35
2022-10-09T01:46:14.405Z,71.68
2022-10-09T01:48:42.004Z,81.65
2022-10-09T01:51:09.646Z,73.68
2022-10-09T01:53:37.521Z,63.40
2022-10-09T01:56:13.823Z,61.63
2022-10-09T01:58:52.808Z,63.45
2022-10-09T02:01:27.239Z,55.80
2022-10-09T02:03:56.436Z,63.88
2022-10-09T02:06:24.249Z,48.08
2022-10-09T02:08:53.876Z,48.75
2022-10-09T02:11:21.780Z,45.67
2022-10-09T02:13:52.938Z,47.97
2022-10-09T02:16:38.958Z,43.20
2022-10-09T02:19:12.406Z,68.97
2022-10-09T02:21:52.486Z,55.92
2022-10-09T02:24:23.065Z,61.58
2022-10-09T02:26:51.460Z,59.40
2022-10-09T02:29:18.888Z,56.63
2022-10-09T02:31:46.279Z,49.38
2022-10-09T02:34:16.019Z,52.45
2022-10-09T02:36:43.471Z,58.88
2022-10-09T02:39:11.032Z,56.42
2022-10-09T02:41:38.543Z,52.35
2022-10-09T02:44:06.332Z,49.05
2022-10-09T02:46:34.461Z,48.40
2022-10-09T02:49:02.056Z,45.70
2022-10-09T02:51:29.532Z,41.03
2022-10-09T02:53:57.007Z,50.88
2022-10-09T02:56:24.409Z,46.45
2022-10-09T02:58:52.049Z,37.33
2022-10-09T03:01:19.528Z,38.75
2022-10-09T03:03:47.453Z,36.90
2022-10-09T03:06:16.034Z,48.75
2022-10-09T03:08:45.843Z,31.20
2022-10-09T03:11:14.263Z,32.67
2022-10-09T03:13:41.984Z,49.05
2022-10-09T03:16:11.673Z,49.90
2022-10-09T03:18:39.167Z,33.22
2022-10-09T03:21:10.265Z,40.90
2022-10-09T03:23:37.704Z,46.60
2022-10-09T03:26:07.873Z,56.65
2022-10-09T03:28:42.980Z,43.38
2022-10-09T03:33:50.105Z,55.25
2022-10-09T03:36:17.578Z,42.10
2022-10-09T03:38:45.029Z,27.83
2022-10-09T03:41:12.448Z,36.50
2022-10-09T03:43:39.831Z,34.00
2022-10-09T03:46:08.321Z,29.65
2022-10-09T03:48:36.641Z,28.23
2022-10-09T03:51:04.269Z,32.08
2022-10-09T03:53:31.970Z,28.35
2022-10-09T03:55:59.403Z,27.52
2022-10-09T03:58:27.060Z,33.00
2022-10-09T04:00:54.535Z,24.52
2022-10-09T04:03:22.488Z,26.40
2022-10-09T04:05:50.101Z,27.02
2022-10-09T04:08:17.684Z,33.78
2022-10-09T04:10:45.662Z,24.45
2022-10-09T04:13:13.044Z,30.35
2022-10-09T04:15:40.512Z,29.35
2022-10-09T04:18:08.495Z,31.83
2022-10-09T04:20:35.960Z,29.73
2022-10-09T04:23:03.319Z,24.75
2022-10-09T04:25:31.887Z,26.40
2022-10-09T04:27:59.285Z,20.92
2022-10-09T04:30:26.650Z,26.85
2022-10-09T04:32:54.042Z,22.30
2022-10-09T04:35:21.465Z,22.15
2022-10-09T04:37:48.832Z,27.35
2022-10-09T04:40:16.315Z,26.80
2022-10-09T04:42:43.710Z,27.00
2022-10-09T04:45:11.492Z,26.10
2022-10-09T04:47:38.871Z,26.50
2022-10-09T04:50:06.548Z,25.83
2022-10-09T04:52:34.075Z,29.30
2022-10-09T04:55:01.462Z,23.85
2022-10-09T04:57:28.884Z,51.08
2022-10-09T04:59:56.322Z,44.25
2022-10-09T05:02:23.833Z,46.00
2022-10-09T05:04:51.351Z,53.63
2022-10-09T05:07:18.813Z,32.38
2022-10-09T05:09:46.259Z,34.30
2022-10-09T05:12:13.720Z,31.45
2022-10-09T05:14:41.150Z,31.25
2022-10-09T05:17:14.237Z,34.22
2022-10-09T05:19:42.371Z,38.28
2022-10-09T05:22:09.777Z,29.20
2022-10-09T05:24:37.242Z,50.22
2022-10-09T05:27:04.783Z,47.80
2022-10-09T05:29:32.350Z,37.95
2022-10-09T05:31:59.883Z,43.38
2022-10-09T05:34:27.316Z,43.55
2022-10-09T05:36:54.756Z,23.85
2022-10-09T05:39:22.244Z,41.28
2022-10-09T05:41:49.728Z,33.80
2022-10-09T05:44:17.101Z,32.33
2022-10-09T05:46:44.561Z,27.83
2022-10-09T05:49:12.303Z,24.27
2022-10-09T05:51:42.790Z,26.77
2022-10-09T05:54:14.084Z,31.85
2022-10-09T05:56:42.489Z,25.45
2022-10-09T05:59:10.995Z,37.13
2022-10-09T06:01:39.710Z,28.40
2022-10-09T06:04:09.951Z,31.02
2022-10-09T06:06:38.595Z,29.02
2022-10-09T06:09:06.590Z,29.33
2022-10-09T06:11:35.408Z,29.80
2022-10-09T06:14:03.442Z,23.83
2022-10-09T06:16:35.604Z,33.45
2022-10-09T06:19:03.570Z,28.73
2022-10-09T06:21:30.976Z,27.15
2022-10-09T06:23:59.677Z,37.38
2022-10-09T06:26:29.418Z,30.98
2022-10-09T06:28:57.497Z,26.00
2022-10-09T06:31:28.816Z,27.70
2022-10-09T06:33:56.814Z,38.42
2022-10-09T06:36:28.282Z,36.13
2022-10-09T06:38:56.087Z,29.42
2022-10-09T06:41:26.950Z,29.38
2022-10-09T06:43:55.499Z,32.22
2022-10-09T06:46:24.818Z,30.90
2022-10-09T06:48:52.451Z,22.58
2022-10-09T06:51:20.916Z,25.08
2022-10-09T06:53:52.295Z,26.33
2022-10-09T06:56:20.517Z,23.65
2022-10-09T06:58:47.901Z,22.65
2022-10-09T07:01:24.295Z,22.88
2022-10-09T07:03:56.476Z,20.08
2022-10-09T07:06:33.855Z,19.13
2022-10-09T07:09:05.789Z,20.60
2022-10-09T07:11:34.762Z,21.48
2022-10-09T07:14:03.155Z,22.20
2022-10-09T07:16:34.491Z,18.98
2022-10-09T07:19:03.787Z,22.42
2022-10-09T07:21:31.152Z,24.88
2022-10-09T07:24:00.931Z,15.80
2022-10-09T07:26:29.502Z,16.63
2022-10-09T07:28:57.014Z,16.13
2022-10-09T07:31:24.486Z,17.48
2022-10-09T07:33:52.560Z,18.17
2022-10-09T07:36:20.130Z,18.25
2022-10-09T07:38:55.113Z,14.40
2022-10-09T07:41:23.393Z,14.60
2022-10-09T07:43:51.135Z,15.20
2022-10-09T07:46:19.831Z,19.73
2022-10-09T07:48:47.425Z,17.30
2022-10-09T07:51:19.173Z,17.20
2022-10-09T07:53:46.732Z,44.42
2022-10-09T07:56:24.808Z,22.38
2022-10-09T07:58:56.483Z,33.75
2022-10-09T08:01:24.402Z,24.60
2022-10-09T08:03:51.879Z,36.75
2022-10-09T08:06:19.775Z,17.35
2022-10-09T08:08:51.001Z,24.65
2022-10-09T08:11:19.447Z,25.55
2022-10-09T08:13:47.367Z,28.40
2022-10-09T08:16:15.410Z,25.58
2022-10-09T08:18:42.963Z,28.00
2022-10-09T08:21:12.758Z,18.85
2022-10-09T08:23:40.194Z,24.85
2022-10-09T08:26:17.802Z,28.65
2022-10-09T08:28:45.760Z,27.00
2022-10-09T08:31:17.937Z,17.23
2022-10-09T08:33:45.379Z,13.65
2022-10-09T08:36:15.328Z,14.52
2022-10-09T08:38:47.914Z,14.13
2022-10-09T08:41:28.556Z,15.38
2022-10-09T08:44:16.340Z,18.75
2022-10-09T08:46:46.814Z,13.10
2022-10-09T08:49:22.994Z,15.40
2022-10-09T08:51:51.048Z,18.55
2022-10-09T08:54:27.604Z,14.70
2022-10-09T08:56:55.059Z,14.45
2022-10-09T08:59:22.420Z,11.95
2022-10-09T09:01:52.760Z,17.75
2022-10-09T09:04:39.581Z,18.33
2022-10-09T09:07:07.027Z,21.25
2022-10-09T09:09:37.437Z,31.48
2022-10-09T09:12:09.331Z,16.40
2022-10-09T09:14:51.842Z,12.57
2022-10-09T09:17:54.989Z,38.10
2022-10-09T09:20:31.799Z,23.45
2022-10-09T09:23:01.410Z,21.90
2022-10-09T09:25:34.942Z,26.58
2022-10-09T09:28:12.607Z,29.48
2022-10-09T09:30:47.460Z,13.18
2022-10-09T09:33:20.433Z,15.25
2022-10-09T09:35:57.055Z,44.22
2022-10-09T09:38:24.663Z,33.13
2022-10-09T09:40:54.889Z,19.52
2022-10-09T09:43:23.509Z,13.20
2022-10-09T09:45:58.182Z,20.50
2022-10-09T09:51:10.361Z,15.75
2022-10-09T09:53:43.184Z,11.02
2022-10-09T09:56:10.756Z,13.38
2022-10-09T09:58:45.271Z,21.58
2022-10-09T10:01:24.039Z,10.18
2022-10-09T10:03:52.948Z,19.13
2022-10-09T10:06:31.106Z,21.20
2022-10-09T10:09:18.859Z,19.10
2022-10-09T10:11:48.203Z,15.25
2022-10-09T10:14:16.841Z,14.68
2022-10-09T10:16:44.894Z,14.45
2022-10-09T10:19:25.645Z,30.05
2022-10-09T10:21:58.109Z,9.20
2022-10-09T10:24:28.358Z,12.45
2022-10-09T10:27:04.942Z,7.93
2022-10-09T10:29:43.216Z,11.15
2022-10-09T10:32:18.402Z,7.43
2022-10-09T10:34:48.604Z,6.55
2022-10-09T10:37:16.044Z,11.00
2022-10-09T10:39:43.443Z,7.97
2022-10-09T10:42:15.883Z,10.98
2022-10-09T10:44:56.006Z,8.60
2022-10-09T10:47:26.228Z,10.55
2022-10-09T10:49:56.318Z,6.55
2022-10-09T10:52:30.507Z,9.45
2022-10-09T10:55:01.603Z,11.38
2022-10-09T10:57:39.623Z,6.72
2022-10-09T11:00:09.556Z,10.35
2022-10-09T11:02:57.303Z,11.70
2022-10-09T11:05:27.753Z,11.65
2022-10-09T11:07:59.183Z,10.18
2022-10-09T11:10:39.587Z,10.80
2022-10-09T11:13:18.658Z,9.85
2022-10-09T11:16:07.529Z,11.82
2022-10-09T11:18:53.511Z,10.82
2022-10-09T11:21:21.222Z,32.55
2022-10-09T11:23:54.444Z,23.27
2022-10-09T11:26:25.302Z,13.02
2022-10-09T11:28:54.572Z,13.30
2022-10-09T11:31:38.780Z,8.55
2022-10-09T11:34:12.182Z,10.73
2022-10-09T11:36:42.028Z,8.30
2022-10-09T11:39:13.942Z,12.27
2022-10-09T11:41:41.647Z,11.32
2022-10-09T11:44:28.142Z,8.52
2022-10-09T11:46:55.580Z,7.35
2022-10-09T11:49:22.980Z,11.18
2022-10-09T11:52:09.195Z,10.73
2022-10-09T11:54:36.930Z,10.18
2022-10-09T11:57:06.606Z,10.70
2022-10-09T11:59:36.471Z,12.23
2022-10-09T12:02:24.292Z,8.38
2022-10-09T12:04:55.579Z,9.48
2022-10-09T12:07:28.309Z,17.80
2022-10-09T12:10:01.584Z,9.68
2022-10-09T12:12:29.632Z,7.47
2022-10-09T12:14:57.068Z,7.97
2022-10-09T12:17:24.495Z,9.30
2022-10-09T12:20:00.796Z,9.43
2022-10-09T12:22:34.627Z,7.15
2022-10-09T12:25:14.229Z,8.70
2022-10-09T12:27:42.066Z,9.20
2022-10-09T12:30:15.501Z,7.93
2022-10-09T12:32:47.367Z,8.00
2022-10-09T12:35:23.392Z,9.50
2022-10-09T12:37:50.899Z,8.25
2022-10-09T12:40:23.024Z,7.13
2022-10-09T12:42:54.263Z,10.23
2022-10-09T12:45:23.572Z,9.45
2022-10-09T12:47:51.335Z,12.50
2022-10-09T12:50:28.356Z,15.38
2022-10-09T12:53:03.806Z,10.45
2022-10-09T12:55:32.948Z,7.90
2022-10-09T12:58:03.452Z,11.25
2022-10-09T13:00:32.793Z,12.55
2022-10-09T13:03:01.458Z,10.52
2022-10-09T13:05:41.921Z,13.40
2022-10-09T13:08:21.669Z,12.20
2022-10-09T13:10:49.146Z,7.45
2022-10-09T13:13:20.835Z,11.35
2022-10-09T13:15:58.697Z,13.63
2022-10-09T13:18:26.220Z,14.77
2022-10-09T13:21:31.468Z,10.90
2022-10-09T13:24:13.237Z,11.02
2022-10-09T13:26:43.463Z,13.23
2022-10-09T13:29:12.853Z,9.77
2022-10-09T13:31:43.685Z,11.80
2022-10-09T13:34:13.194Z,10.32
2022-10-09T13:36:40.772Z,10.20
2022-10-09T13:39:11.764Z,11.25
2022-10-09T13:41:39.303Z,10.15
2022-10-09T13:44:06.764Z,9.38
2022-10-09T13:46:34.231Z,9.50
2022-10-09T13:49:01.683Z,16.02
2022-10-09T13:51:29.503Z,12.65
2022-10-09T13:53:57.023Z,8.88
2022-10-09T13:56:24.547Z,12.38
2022-10-09T13:58:52.215Z,7.85
2022-10-09T14:01:19.963Z,11.02
2022-10-09T14:03:50.134Z,9.02
2022-10-09T14:06:17.778Z,7.28
2022-10-09T14:08:45.535Z,9.57
2022-10-09T14:11:12.979Z,13.77
2022-10-09T14:13:40.399Z,10.95
2022-10-09T14:16:08.175Z,21.48
2022-10-09T14:18:35.667Z,18.38
2022-10-09T14:21:13.950Z,10.48
2022-10-09T14:23:42.617Z,11.10
2022-10-09T14:26:10.580Z,13.70
2022-10-09T14:28:38.070Z,9.02
2022-10-09T14:31:06.450Z,9.90
2022-10-09T14:33:33.843Z,6.95
2022-10-09T14:36:13.191Z,11.70
2022-10-09T14:38:40.904Z,10.10
2022-10-09T14:41:09.159Z,10.98
2022-10-09T14:43:36.992Z,23.92
2022-10-09T14:46:05.503Z,12.13
2022-10-09T14:48:33.112Z,14.90
2022-10-09T14:51:07.433Z,14.77
2022-10-09T14:53:34.991Z,13.65
2022-10-09T14:56:06.569Z,14.48
2022-10-09T14:58:34.613Z,16.00
2022-10-09T15:01:04.537Z,9.02
2022-10-09T15:03:32.177Z,7.70
2022-10-09T15:06:00.834Z,9.20
2022-10-09T15:08:30.413Z,9.82
2022-10-09T15:10:57.955Z,44.35
2022-10-09T15:13:25.611Z,54.35
2022-10-09T15:15:53.082Z,16.73
2022-10-09T15:18:20.514Z,14.15
2022-10-09T15:20:49.585Z,16.63
2022-10-09T15:23:17.110Z,63.90
2022-10-09T15:25:51.502Z,26.17
2022-10-09T15:28:20.302Z,60.85
2022-10-09T15:30:49.470Z,54.95
2022-10-09T15:33:17.081Z,84.82
2022-10-09T15:35:46.374Z,31.88
2022-10-09T15:38:15.087Z,61.88
2022-10-09T15:40:45.194Z,21.58
2022-10-09T15:43:13.220Z,31.42
2022-10-09T15:45:41.173Z,46.42
2022-10-09T15:48:08.969Z,25.27
2022-10-09T15:50:37.356Z,28.30
2022-10-09T15:53:10.967Z,78.35
2022-10-09T15:55:38.725Z,54.38
2022-10-09T15:58:06.295Z,50.35
2022-10-09T16:00:40.837Z,64.10
2022-10-09T16:03:11.004Z,63.88
2022-10-09T16:05:43.693Z,70.22
2022-10-09T16:08:12.102Z,62.70
2022-10-09T16:10:49.077Z,70.82
2022-10-09T16:13:17.092Z,85.20
2022-10-09T16:15:45.863Z,59.25
2022-10-09T16:18:17.244Z,89.70
2022-10-09T16:20:44.825Z,91.82
2022-10-09T16:23:13.092Z,107.57
2022-10-09T16:25:41.094Z,75.15
2022-10-09T16:28:09.620Z,107.10
2022-10-09T16:30:42.904Z,61.10
2022-10-09T16:33:12.875Z,43.72
2022-10-09T16:35:40.543Z,42.83
2022-10-09T16:38:07.936Z,46.58
2022-10-09T16:41:00.992Z,52.90
2022-10-09T16:43:23.109Z,61.05
2022-10-09T16:45:53.096Z,61.63
2022-10-09T16:48:20.554Z,65.45
2022-10-09T16:50:48.024Z,78.35
2022-10-09T16:53:15.616Z,78.68
2022-10-09T16:55:43.019Z,77.25
2022-10-09T16:58:10.504Z,69.97
2022-10-09T17:00:37.951Z,71.60
2022-10-09T17:03:06.022Z,97.32
2022-10-09T17:05:38.443Z,103.30
2022-10-09T17:08:05.932Z,101.22
2022-10-09T17:10:33.372Z,100.78
2022-10-09T17:13:00.926Z,89.38
2022-10-09T17:15:29.121Z,94.13
2022-10-09T17:17:56.616Z,86.43
2022-10-09T17:20:33.006Z,72.10
2022-10-09T17:23:00.775Z,71.00
2022-10-09T17:25:28.924Z,93.75
2022-10-09T17:27:56.408Z,77.88
2022-10-09T17:30:25.392Z,73.65
2022-10-09T17:32:53.200Z,67.93
2022-10-09T17:35:20.866Z,66.75
2022-10-09T17:37:48.334Z,60.85
2022-10-09T17:40:15.900Z,52.55
2022-10-09T17:42:43.708Z,48.25
2022-10-09T17:45:11.224Z,58.33
2022-10-09T17:47:38.888Z,49.42
2022-10-09T17:50:06.819Z,52.92
2022-10-09T17:52:34.344Z,64.00
2022-10-09T17:55:01.768Z,99.40
2022-10-09T17:57:29.213Z,77.03
2022-10-09T17:59:56.660Z,78.10
2022-10-09T18:02:24.258Z,76.82
2022-10-09T18:04:57.259Z,65.47
2022-10-09T18:07:25.550Z,65.47
2022-10-09T18:09:53.097Z,70.38
2022-10-09T18:12:20.759Z,68.10
2022-10-09T18:14:48.376Z,62.10
2022-10-09T18:17:15.849Z,56.28
2022-10-09T18:19:43.281Z,55.47
2022-10-09T18:22:10.940Z,73.80
2022-10-09T18:24:38.446Z,60.90
2022-10-09T18:27:05.967Z,64.82
2022-10-09T18:29:33.358Z,66.82
2022-10-09T18:32:00.838Z,51.47
2022-10-09T18:34:28.338Z,52.63
2022-10-09T18:36:58.522Z,42.45
2022-10-09T18:39:26.012Z,49.25
2022-10-09T18:41:55.261Z,50.50
2022-10-09T18:44:24.189Z,43.17
2022-10-09T18:46:56.856Z,49.90
2022-10-09T18:49:26.199Z,60.03
2022-10-09T18:51:53.762Z,75.75
2022-10-09T18:54:22.130Z,81.50
2022-10-09T18:56:54.937Z,67.30
2022-10-09T18:59:23.145Z,43.80
2022-10-09T19:01:50.576Z,44.92
2022-10-09T19:04:19.107Z,44.35
2022-10-09T19:06:46.624Z,44.72
2022-10-09T19:09:14.245Z,77.70
2022-10-09T19:11:41.736Z,90.75
2022-10-09T19:14:09.156Z,68.80
2022-10-09T19:16:36.815Z,86.63
2022-10-09T19:19:04.349Z,101.75
2022-10-09T19:21:32.240Z,74.95
2022-10-09T19:24:08.682Z,81.90
2022-10-09T19:26:36.278Z,52.58
2022-10-09T19:29:04.210Z,53.42
2022-10-09T19:31:32.304Z,76.30
2022-10-09T19:34:04.483Z,60.78
2022-10-09T19:36:36.891Z,60.03
2022-10-09T19:39:05.040Z,48.28
2022-10-09T19:41:32.441Z,53.22
2022-10-09T19:44:00.378Z,32.72
2022-10-09T19:46:28.375Z,23.83
2022-10-09T19:48:55.990Z,21.70
2022-10-09T19:51:24.679Z,21.52
2022-10-09T19:53:53.557Z,29.48
2022-10-09T19:56:22.494Z,23.38
2022-10-09T19:58:50.585Z,19.02
2022-10-09T20:01:19.727Z,33.45
2022-10-09T20:03:53.942Z,22.38
2022-10-09T20:06:23.124Z,24.23
2022-10-09T20:08:51.017Z,19.05
2022-10-09T20:11:20.523Z,19.40
2022-10-09T20:13:52.079Z,18.70
2022-10-09T20:16:23.119Z,15.10
2022-10-09T20:19:12.037Z,15.93
2022-10-09T20:21:40.238Z,57.70
2022-10-09T20:24:15.559Z,71.97
2022-10-09T20:26:43.431Z,43.22
2022-10-09T20:29:10.995Z,86.20
2022-10-09T20:31:46.155Z,25.17
2022-10-09T20:34:23.530Z,22.70
2022-10-09T20:36:51.261Z,151.35
2022-10-09T20:39:19.746Z,26.42
2022-10-09T20:41:56.716Z,68.35
2022-10-09T20:44:32.223Z,44.63
2022-10-09T20:47:05.467Z,25.95
2022-10-09T20:49:32.932Z,17.25
2022-10-09T20:52:00.291Z,54.47
2022-10-09T20:54:27.780Z,83.95
2022-10-09T20:56:55.299Z,87.60
2022-10-09T20:59:22.925Z,68.60
2022-10-09T21:01:50.371Z,22.83
2022-10-09T21:04:17.940Z,23.27
2022-10-09T21:06:45.534Z,24.38
2022-10-09T21:09:13.051Z,32.10
2022-10-09T21:11:41.744Z,12.82
2022-10-09T21:14:10.638Z,13.48
2022-10-09T21:16:40.641Z,12.05
2022-10-09T21:19:08.647Z,11.23
2022-10-09T21:21:36.369Z,13.35
2022-10-09T21:24:04.289Z,13.60
2022-10-09T21:26:35.939Z,10.88
2022-10-09T21:29:07.045Z,14.13
2022-10-09T21:31:35.233Z,15.88
2022-10-09T21:34:02.918Z,13.23
2022-10-09T21:36:51.023Z,15.77
2022-10-09T21:39:27.426Z,17.08
2022-10-09T21:41:55.106Z,20.85
2022-10-09T21:44:22.618Z,14.35
2022-10-09T21:46:49.996Z,15.80
2022-10-09T21:49:22.129Z,17.10
2022-10-09T21:51:49.592Z,17.77
2022-10-09T21:54:17.322Z,18.20
2022-10-09T21:56:44.790Z,14.30
2022-10-09T21:59:12.243Z,15.20
2022-10-09T22:01:39.709Z,16.30
2022-10-09T22:04:07.099Z,15.32
2022-10-09T22:06:34.560Z,13.32
2022-10-09T22:09:01.974Z,17.08
2022-10-09T22:11:29.451Z,15.30
2022-10-09T22:13:57.098Z,15.15
2022-10-09T22:16:24.536Z,14.90
2022-10-09T22:18:51.917Z,13.50
2022-10-09T22:21:19.486Z,30.45
2022-10-09T22:23:47.100Z,39.33
2022-10-09T22:26:17.108Z,32.75
2022-10-09T22:28:47.683Z,26.42
2022-10-09T22:31:18.034Z,20.80
2022-10-09T22:33:49.796Z,16.42
2022-10-09T22:36:18.141Z,16.52
2022-10-09T22:38:45.697Z,15.45
2022-10-09T22:41:14.093Z,11.65
2022-10-09T22:43:41.767Z,16.45
2022-10-09T22:46:16.956Z,13.93
2022-10-09T22:48:44.897Z,13.77
2022-10-09T22:51:13.956Z,15.38
2022-10-09T22:53:42.274Z,14.20
2022-10-09T22:56:17.321Z,18.02
2022-10-09T22:58:45.290Z,12.85
2022-10-09T23:01:14.541Z,10.98
2022-10-09T23:03:42.145Z,13.45
2022-10-09T23:06:10.595Z,10.82
2022-10-09T23:08:38.903Z,11.82
2022-10-09T23:11:06.771Z,12.85
2022-10-09T23:13:34.204Z,11.90
2022-10-09T23:16:02.068Z,14.13
2022-10-09T23:18:30.691Z,12.63
2022-10-09T23:20:58.373Z,10.90
2022-10-09T23:23:25.875Z,14.20
2022-10-09T23:25:53.263Z,10.52
2022-10-09T23:28:21.827Z,16.63
2022-10-09T23:30:49.590Z,12.35
2022-10-09T23:33:17.055Z,12.15
2022-10-09T23:35:44.665Z,13.77
2022-10-09T23:38:12.084Z,12.15
2022-10-09T23:40:39.461Z,11.13
2022-10-09T23:43:06.890Z,12.40
2022-10-09T23:45:36.542Z,12.00
2022-10-09T23:48:04.090Z,13.10
2022-10-09T23:50:31.611Z,14.77
2022-10-09T23:52:59.024Z,18.98
2022-10-09T23:55:26.456Z,13.32
2022-10-09T23:57:53.845Z,12.50
